Time;durP1;ratioP1;P1;durP2;ratioP2;P2;SDS_P1;SDS_P2;PMS_P1;PMS_P2;Temp;Humidity;BMP_temperature;BMP_pressure;BME280_temperature;BME280_humidity;BME280_pressure;Samples;Min_cycle;Max_cycle;Signal;HPM_P1;HPM_P2
2022/05/04 00:00:48;;;;;;;;;;;;;;;14.78;63.71;101036.13;4423933;32;19969;-70
2022/05/04 00:03:14;;;;;;;;;;;;;;;15.30;62.01;101026.84;4421994;32;20027;-70
2022/05/04 00:05:39;;;;;;;;;;;;;;;15.51;61.25;101038.19;4424851;32;20422;-70
2022/05/04 00:08:05;;;;;;;;;;;;;;;15.58;60.81;101028.59;4421812;32;20001;-70
2022/05/04 00:10:31;;;;;;;;;;;;;;;15.57;60.56;101036.34;4423026;32;19957;-70
2022/05/04 00:12:58;;;;;;;;;;;;;;;15.69;60.46;101020.47;4422287;32;20008;-70
2022/05/04 00:15:24;;;;;;;;;;;;;;;15.68;60.27;101021.72;4423256;32;19953;-70
2022/05/04 00:17:49;;;;;;;;;;;;;;;15.68;60.29;101016.81;4421302;32;20029;-70
2022/05/04 00:20:15;;;;;;;;;;;;;;;15.68;60.27;101016.81;4422165;32;20008;-70
2022/05/04 00:22:40;;;;;;;;;;;;;;;15.73;60.30;101019.06;4421505;32;20011;-70
2022/05/04 00:25:06;;;;;;;;;;;;;;;15.81;59.39;101016.72;4422847;32;19996;-70
2022/05/04 00:27:33;;;;;;;;;;;;;;;15.84;59.59;101010.13;4421657;32;20444;-70
2022/05/04 00:29:58;;;;;;;;;;;;;;;15.70;60.19;101011.50;4421008;32;20378;-70
2022/05/04 00:32:23;;;;;;;;;;;;;;;15.41;61.26;101010.25;4421259;32;20337;-70
2022/05/04 00:34:49;;;;;;;;;;;;;;;15.35;61.07;101003.56;4423247;32;19996;-70
2022/05/04 00:37:14;;;;;;;;;;;;;;;15.43;61.40;101002.06;4421826;32;19983;-70
2022/05/04 00:39:40;;;;;;;;;;;;;;;15.44;61.25;100987.41;4423003;32;20045;-70
2022/05/04 00:42:07;;;;;;;;;;;;;;;15.45;60.95;100991.84;4420687;32;19984;-70
2022/05/04 00:44:32;;;;;;;;;;;;;;;15.49;61.33;100991.69;4421043;32;20028;-70
2022/05/04 00:46:58;;;;;;;;;;;;;;;15.53;61.13;100989.50;4422223;32;19997;-70
2022/05/04 00:49:23;;;;;;;;;;;;;;;15.46;61.42;100986.94;4423997;32;20009;-70
2022/05/04 00:51:48;;;;;;;;;;;;;;;15.41;61.79;100991.19;4422086;32;20459;-70
2022/05/04 00:54:14;;;;;;;;;;;;;;;15.36;62.01;100990.97;4422458;32;20337;-70
2022/05/04 00:56:40;;;;;;;;;;;;;;;15.48;61.69;100990.13;4421576;32;19975;-70
2022/05/04 00:59:05;;;;;;;;;;;;;;;15.50;61.66;100984.78;4421524;32;19965;-70
2022/05/04 01:01:31;;;;;;;;;;;;;;;15.41;61.80;100984.72;4423817;32;19972;-70
2022/05/04 01:03:59;;;;;;;;;;;;;;;15.23;61.46;100988.25;4423217;32;19965;-70
2022/05/04 01:06:25;;;;;;;;;;;;;;;15.28;61.77;100981.19;4426600;32;19949;-70
2022/05/04 01:08:52;;;;;;;;;;;;;;;15.22;62.21;100977.38;4425873;32;21374;-70
2022/05/04 01:11:18;;;;;;;;;;;;;;;15.25;62.36;100974.38;4424553;32;20001;-70
2022/05/04 01:13:56;;;;;;;;;;;;;;;15.30;61.56;100967.31;4425728;32;20009;-70
2022/05/04 01:16:22;;;;;;;;;;;;;;;15.29;62.48;100968.56;4426159;32;20016;-70
2022/05/04 01:18:47;;;;;;;;;;;;;;;15.34;62.31;100967.97;4424349;32;20078;-70
2022/05/04 01:21:13;;;;;;;;;;;;;;;15.38;62.49;100966.59;4423460;32;20292;-70
2022/05/04 01:23:39;;;;;;;;;;;;;;;15.46;62.08;100975.59;4420866;32;19994;-70
2022/05/04 01:26:05;;;;;;;;;;;;;;;15.48;61.92;100967.41;4421766;32;19957;-70
2022/05/04 01:28:30;;;;;;;;;;;;;;;15.51;61.82;100966.50;4420675;32;19989;-70
2022/05/04 01:30:59;;;;;;;;;;;;;;;15.51;61.82;100969.31;4423155;32;20000;-69
2022/05/04 01:33:24;;;;;;;;;;;;;;;15.55;61.43;100952.94;4421138;32;20108;-69
2022/05/04 01:35:50;;;;;;;;;;;;;;;15.61;61.37;100953.91;4421454;32;19993;-69
2022/05/04 01:38:16;;;;;;;;;;;;;;;15.60;61.07;100953.13;4423268;32;19957;-69
2022/05/04 01:40:41;;;;;;;;;;;;;;;15.56;61.99;100948.87;4422073;32;20000;-69
2022/05/04 01:43:07;;;;;;;;;;;;;;;15.56;61.95;100943.19;4418857;32;20341;-69
2022/05/04 01:45:32;;;;;;;;;;;;;;;15.51;61.98;100943.78;4423417;32;20376;-69
2022/05/04 01:47:58;;;;;;;;;;;;;;;15.57;62.20;100941.94;4422531;32;20263;-69
2022/05/04 01:50:23;;;;;;;;;;;;;;;15.60;61.94;100941.00;4421964;32;20358;-69
2022/05/04 01:52:49;;;;;;;;;;;;;;;15.57;61.98;100942.72;4422900;32;20425;-69
2022/05/04 01:55:15;;;;;;;;;;;;;;;15.58;61.68;100940.66;4422045;32;19988;-69
2022/05/04 01:57:41;;;;;;;;;;;;;;;15.46;62.22;100942.37;4400677;32;19961;-69
2022/05/04 02:00:07;;;;;;;;;;;;;;;15.47;62.25;100931.81;4422019;32;20339;-69
2022/05/04 02:02:33;;;;;;;;;;;;;;;15.37;62.90;100938.72;4421845;32;20006;-69
2022/05/04 02:04:59;;;;;;;;;;;;;;;15.43;62.64;100934.00;4420919;32;20380;-69
2022/05/04 02:07:24;;;;;;;;;;;;;;;15.48;61.98;100931.34;4421796;32;20095;-69
2022/05/04 02:09:50;;;;;;;;;;;;;;;15.51;62.15;100938.13;4421956;32;19964;-69
2022/05/04 02:12:15;;;;;;;;;;;;;;;15.62;62.07;100935.66;4423362;32;19977;-69
2022/05/04 02:14:41;;;;;;;;;;;;;;;15.48;62.60;100924.87;4422995;32;20036;-69
2022/05/04 02:17:07;;;;;;;;;;;;;;;15.59;62.46;100928.06;4423795;32;19976;-69
2022/05/04 02:19:32;;;;;;;;;;;;;;;15.61;62.34;100936.88;4425510;32;20019;-69
2022/05/04 02:21:58;;;;;;;;;;;;;;;15.52;62.37;100925.50;4423844;32;19972;-69
2022/05/04 02:24:24;;;;;;;;;;;;;;;15.56;62.18;100932.63;4424709;32;20069;-69
2022/05/04 02:26:50;;;;;;;;;;;;;;;15.53;62.36;100930.72;4422023;32;19965;-69
2022/05/04 02:29:15;;;;;;;;;;;;;;;15.63;61.98;100923.03;4424228;32;20006;-69
2022/05/04 02:31:41;;;;;;;;;;;;;;;15.71;62.06;100916.59;4424455;32;20001;-69
2022/05/04 02:34:06;;;;;;;;;;;;;;;15.68;62.45;100911.06;4410986;32;20377;-69
2022/05/04 02:39:17;;;;;;;;;;;;;;;15.57;62.74;100905.84;4424915;32;20049;-68
2022/05/04 02:41:43;;;;;;;;;;;;;;;15.40;63.45;100909.44;4420776;32;20435;-69
2022/05/04 02:44:09;;;;;;;;;;;;;;;15.39;63.75;100911.47;4423850;32;20005;-69
2022/05/04 02:46:35;;;;;;;;;;;;;;;15.22;64.19;100901.59;4422519;32;20586;-69
2022/05/04 02:49:00;;;;;;;;;;;;;;;15.22;64.09;100906.50;4426126;32;19997;-69
2022/05/04 02:51:26;;;;;;;;;;;;;;;15.13;64.50;100903.62;4423141;32;19965;-69
2022/05/04 02:53:52;;;;;;;;;;;;;;;15.17;64.25;100904.25;4423244;32;20355;-69
2022/05/04 02:56:17;;;;;;;;;;;;;;;15.32;64.02;100902.41;4424977;32;20003;-69
2022/05/04 02:58:43;;;;;;;;;;;;;;;15.34;63.65;100894.25;4424232;32;19953;-69
2022/05/04 03:03:57;;;;;;;;;;;;;;;15.35;63.43;100892.97;4423125;32;19957;-69
2022/05/04 03:06:22;;;;;;;;;;;;;;;15.26;63.41;100888.06;4422426;32;20019;-69
2022/05/04 03:08:48;;;;;;;;;;;;;;;15.13;63.84;100880.94;4424552;32;19997;-69
2022/05/04 03:12:22;;;;;;;;;;;;;;;15.13;63.68;100886.59;4423405;32;20008;-69
2022/05/04 03:13:59;;;;;;;;;;;;;;;15.21;63.32;100877.34;4422305;32;20004;-69
2022/05/04 03:16:25;;;;;;;;;;;;;;;15.28;63.27;100876.28;4423704;32;19988;-70
2022/05/04 03:18:51;;;;;;;;;;;;;;;15.40;62.72;100869.72;4424316;32;20308;-69
2022/05/04 03:21:16;;;;;;;;;;;;;;;15.46;62.77;100868.63;4424157;32;19961;-69
2022/05/04 03:23:42;;;;;;;;;;;;;;;15.26;63.02;100870.28;4422747;32;20033;-69
2022/05/04 03:26:08;;;;;;;;;;;;;;;15.34;62.83;100872.34;4424001;32;19993;-69
2022/05/04 03:28:34;;;;;;;;;;;;;;;15.31;63.17;100864.75;4425118;32;20402;-70
2022/05/04 03:30:59;;;;;;;;;;;;;;;15.34;63.19;100874.41;4423192;32;20052;-69
2022/05/04 03:33:25;;;;;;;;;;;;;;;15.63;62.21;100867.09;4423178;32;19961;-69
2022/05/04 03:35:51;;;;;;;;;;;;;;;15.73;61.90;100874.34;4408496;32;19980;-70
2022/05/04 03:38:17;;;;;;;;;;;;;;;15.90;61.90;100869.94;4423709;32;19967;-70
2022/05/04 03:40:42;;;;;;;;;;;;;;;15.96;61.56;100870.91;4423451;32;19953;-70
2022/05/04 03:43:08;;;;;;;;;;;;;;;16.06;61.01;100868.06;4422134;32;19953;-70
2022/05/04 03:45:34;;;;;;;;;;;;;;;16.07;61.02;100861.91;4424556;32;20021;-69
2022/05/04 03:47:59;;;;;;;;;;;;;;;16.16;60.65;100867.59;4422928;32;20086;-69
2022/05/04 03:50:25;;;;;;;;;;;;;;;15.73;62.03;100862.19;4423171;32;20020;-69
2022/05/04 03:52:51;;;;;;;;;;;;;;;15.49;61.73;100856.34;4422536;32;20338;-69
2022/05/04 03:55:17;;;;;;;;;;;;;;;15.61;62.00;100865.97;4423825;32;20370;-69
2022/05/04 03:57:42;;;;;;;;;;;;;;;15.57;62.31;100860.47;4421933;32;20019;-69
2022/05/04 04:00:09;;;;;;;;;;;;;;;15.54;62.25;100861.41;4423012;32;20007;-69
2022/05/04 04:02:37;;;;;;;;;;;;;;;15.48;62.87;100862.47;4421114;32;19979;-69
2022/05/04 04:05:03;;;;;;;;;;;;;;;15.47;63.03;100866.59;4423802;32;19965;-69
2022/05/04 04:07:29;;;;;;;;;;;;;;;15.39;62.67;100862.44;4423413;32;20016;-69
2022/05/04 04:09:55;;;;;;;;;;;;;;;15.51;62.49;100861.53;4406827;32;19989;-69
2022/05/04 04:12:21;;;;;;;;;;;;;;;15.34;61.96;100861.00;4423080;32;19957;-69
2022/05/04 04:14:47;;;;;;;;;;;;;;;15.38;62.64;100860.87;4423245;32;19976;-69
2022/05/04 04:17:12;;;;;;;;;;;;;;;15.27;62.43;100864.13;4410552;32;19996;-69
2022/05/04 04:19:38;;;;;;;;;;;;;;;15.28;63.70;100857.19;4423685;32;20525;-69
2022/05/04 04:22:03;;;;;;;;;;;;;;;15.20;63.36;100855.13;4421502;32;19960;-69
2022/05/04 04:24:31;;;;;;;;;;;;;;;15.16;64.03;100849.59;4424184;32;19961;-69
2022/05/04 04:26:57;;;;;;;;;;;;;;;15.26;64.89;100856.88;4423092;32;19965;-69
2022/05/04 04:29:23;;;;;;;;;;;;;;;15.13;64.82;100861.09;4420601;32;20011;-70
2022/05/04 04:31:48;;;;;;;;;;;;;;;15.07;64.72;100858.06;4423653;32;19957;-69
2022/05/04 04:34:14;;;;;;;;;;;;;;;15.14;65.25;100860.63;4422302;32;20037;-69
2022/05/04 04:36:39;;;;;;;;;;;;;;;15.26;64.58;100856.88;4422347;32;19990;-69
2022/05/04 04:39:05;;;;;;;;;;;;;;;15.72;63.05;100864.28;4422770;32;19989;-68
2022/05/04 04:41:31;;;;;;;;;;;;;;;15.70;62.45;100858.28;4421607;32;20024;-68
2022/05/04 04:43:57;;;;;;;;;;;;;;;15.67;62.85;100853.53;4421599;32;19981;-69
2022/05/04 04:46:23;;;;;;;;;;;;;;;15.52;62.08;100855.41;4422513;32;20356;-69
2022/05/04 04:48:49;;;;;;;;;;;;;;;15.89;61.57;100851.34;4421777;32;19964;-69
2022/05/04 04:51:17;;;;;;;;;;;;;;;15.84;61.12;100845.53;4422898;32;19997;-68
2022/05/04 04:53:43;;;;;;;;;;;;;;;15.44;62.36;100844.81;4422175;32;19953;-68
2022/05/04 04:56:09;;;;;;;;;;;;;;;15.43;62.41;100846.87;4422329;32;20046;-69
2022/05/04 04:58:34;;;;;;;;;;;;;;;15.18;64.04;100846.28;4423592;32;19961;-69
2022/05/04 05:01:00;;;;;;;;;;;;;;;14.51;66.64;100837.63;4421261;32;19965;-68
2022/05/04 05:03:26;;;;;;;;;;;;;;;14.43;66.34;100844.84;4420521;32;19993;-68
2022/05/04 05:05:51;;;;;;;;;;;;;;;14.45;66.47;100847.22;4423438;32;19969;-67
2022/05/04 05:08:17;;;;;;;;;;;;;;;14.64;66.57;100846.87;4422468;32;20373;-68
2022/05/04 05:10:42;;;;;;;;;;;;;;;14.39;66.53;100847.00;4421166;32;19997;-68
2022/05/04 05:13:08;;;;;;;;;;;;;;;14.72;66.94;100850.97;4422520;32;20028;-67
2022/05/04 05:16:07;;;;;;;;;;;;;;;14.64;67.43;100852.53;4422832;32;19961;-67
2022/05/04 05:18:21;;;;;;;;;;;;;;;14.78;67.30;100851.97;4421231;32;20071;-67
2022/05/04 05:20:47;;;;;;;;;;;;;;;14.95;67.59;100858.97;4422442;32;19969;-66
2022/05/04 05:23:12;;;;;;;;;;;;;;;14.87;68.34;100854.84;4422639;32;19989;-68
2022/05/04 05:25:38;;;;;;;;;;;;;;;14.73;69.78;100852.56;4423513;32;19953;-68
2022/05/04 05:28:06;;;;;;;;;;;;;;;14.82;69.05;100863.16;4422616;32;20379;-68
2022/05/04 05:30:31;;;;;;;;;;;;;;;14.85;69.11;100854.50;4423610;32;19961;-68
2022/05/04 05:32:57;;;;;;;;;;;;;;;14.57;70.67;100852.00;4420981;32;20749;-68
2022/05/04 05:35:23;;;;;;;;;;;;;;;14.97;69.87;100856.44;4424007;32;19953;-68
2022/05/04 05:37:49;;;;;;;;;;;;;;;15.06;69.39;100855.69;4426297;32;20029;-68
2022/05/04 05:40:15;;;;;;;;;;;;;;;15.15;69.64;100853.69;4428188;32;19957;-68
2022/05/04 05:42:41;;;;;;;;;;;;;;;14.96;70.83;100854.09;4428458;32;20422;-69
2022/05/04 05:45:07;;;;;;;;;;;;;;;14.96;72.18;100854.88;4429745;32;19972;-69
2022/05/04 05:47:33;;;;;;;;;;;;;;;15.07;71.64;100855.22;4436127;32;20033;-69
2022/05/04 05:49:58;;;;;;;;;;;;;;;15.17;70.87;100854.03;4431154;32;20013;-68
2022/05/04 05:52:24;;;;;;;;;;;;;;;15.20;71.07;100846.63;4427795;32;19953;-67
2022/05/04 05:54:50;;;;;;;;;;;;;;;15.29;70.71;100855.16;4427154;32;19977;-69
2022/05/04 05:57:15;;;;;;;;;;;;;;;15.26;69.79;100856.88;4426565;32;20018;-69
2022/05/04 05:59:41;;;;;;;;;;;;;;;15.20;69.80;100852.28;4424241;32;20099;-70
2022/05/04 06:02:07;;;;;;;;;;;;;;;15.12;70.65;100865.16;4424101;32;19997;-70
2022/05/04 06:04:33;;;;;;;;;;;;;;;15.19;70.66;100864.91;4424124;32;19957;-70
2022/05/04 06:06:58;;;;;;;;;;;;;;;15.10;71.54;100865.62;4424619;32;19979;-69
2022/05/04 06:09:24;;;;;;;;;;;;;;;15.23;71.73;100869.16;4426366;32;19949;-69
2022/05/04 06:11:51;;;;;;;;;;;;;;;15.06;71.81;100861.34;4409871;32;20401;-70
2022/05/04 06:14:17;;;;;;;;;;;;;;;15.02;71.87;100866.38;4425584;32;20047;-70
2022/05/04 06:16:42;;;;;;;;;;;;;;;15.04;72.39;100861.81;4425564;32;20000;-70
2022/05/04 06:19:08;;;;;;;;;;;;;;;15.02;72.27;100863.56;4424149;32;20004;-70
2022/05/04 06:21:34;;;;;;;;;;;;;;;15.04;71.55;100861.81;4425604;32;20336;-70
2022/05/04 06:23:59;;;;;;;;;;;;;;;15.07;71.19;100862.97;4425452;32;19951;-70
2022/05/04 06:26:25;;;;;;;;;;;;;;;15.03;71.12;100854.59;4423409;32;19996;-70
2022/05/04 06:28:51;;;;;;;;;;;;;;;15.00;71.20;100852.69;4422733;32;20251;-69
2022/05/04 06:34:17;;;;;;;;;;;;;;;15.17;70.01;100848.34;4416366;32;19997;-68
2022/05/04 06:36:43;;;;;;;;;;;;;;;15.20;69.95;100857.97;4420301;32;20476;-68
2022/05/04 06:39:09;;;;;;;;;;;;;;;15.23;70.18;100852.16;4418105;32;19992;-68
2022/05/04 06:41:35;;;;;;;;;;;;;;;15.33;70.22;100852.94;4415971;32;20015;-69
2022/05/04 06:44:02;;;;;;;;;;;;;;;15.33;69.30;100848.06;4420893;32;20011;-68
2022/05/04 06:46:28;;;;;;;;;;;;;;;15.36;68.47;100838.62;4413644;32;19984;-68
2022/05/04 06:48:53;;;;;;;;;;;;;;;15.41;69.07;100831.59;4416537;32;20024;-68
2022/05/04 06:51:19;;;;;;;;;;;;;;;15.37;68.55;100836.63;4416569;32;21109;-68
2022/05/04 06:53:45;;;;;;;;;;;;;;;15.48;69.29;100831.28;4418303;32;19957;-68
2022/05/04 06:56:10;;;;;;;;;;;;;;;15.56;68.55;100846.75;4415415;32;20034;-69
2022/05/04 06:58:39;;;;;;;;;;;;;;;15.74;68.35;100843.94;4416221;32;20011;-68
2022/05/04 07:01:06;;;;;;;;;;;;;;;15.88;67.90;100846.94;4416915;32;19997;-68
2022/05/04 07:03:32;;;;;;;;;;;;;;;16.17;67.89;100849.28;4419439;32;19960;-68
2022/05/04 07:06:00;;;;;;;;;;;;;;;16.36;66.08;100848.03;4417566;32;20379;-68
2022/05/04 07:08:26;;;;;;;;;;;;;;;16.59;65.09;100852.25;4418643;32;19953;-68
2022/05/04 07:10:52;;;;;;;;;;;;;;;16.89;65.11;100852.00;4420797;32;20346;-68
2022/05/04 07:13:17;;;;;;;;;;;;;;;17.05;64.74;100848.78;4419031;32;20045;-68
2022/05/04 07:15:43;;;;;;;;;;;;;;;16.98;64.27;100842.66;4418263;32;20004;-69
2022/05/04 07:18:10;;;;;;;;;;;;;;;16.95;64.08;100840.75;4418985;32;20001;-69
2022/05/04 07:20:35;;;;;;;;;;;;;;;17.03;63.09;100847.69;4416952;32;20412;-69
2022/05/04 07:23:01;;;;;;;;;;;;;;;17.08;62.98;100844.19;4417736;32;19972;-69
2022/05/04 07:25:27;;;;;;;;;;;;;;;17.26;61.57;100844.09;4409807;32;20115;-69
2022/05/04 07:27:53;;;;;;;;;;;;;;;17.42;62.45;100847.31;4400809;32;20027;-69
2022/05/04 07:30:18;;;;;;;;;;;;;;;17.57;61.25;100845.38;4414959;32;19997;-69
2022/05/04 07:32:44;;;;;;;;;;;;;;;17.59;60.08;100844.88;4402820;32;20603;-70
2022/05/04 07:35:10;;;;;;;;;;;;;;;17.69;59.86;100844.34;4406284;32;19965;-70
2022/05/04 07:37:36;;;;;;;;;;;;;;;17.64;60.54;100845.00;4393685;32;19989;-70
2022/05/04 07:42:47;;;;;;;;;;;;;;;17.80;59.98;100846.63;4412560;32;20025;-70
2022/05/04 07:45:15;;;;;;;;;;;;;;;17.50;61.38;100848.59;4409187;32;20004;-71
2022/05/04 07:47:41;;;;;;;;;;;;;;;17.41;62.04;100842.12;4411521;32;19972;-71
2022/05/04 07:50:08;;;;;;;;;;;;;;;17.18;62.21;100840.81;4404477;32;20005;-71
2022/05/04 07:52:34;;;;;;;;;;;;;;;17.10;63.28;100839.59;4407255;32;20033;-70
2022/05/04 07:55:00;;;;;;;;;;;;;;;17.37;61.89;100844.38;4409729;32;20537;-71
2022/05/04 07:57:25;;;;;;;;;;;;;;;17.09;60.78;100843.69;4404191;32;20009;-70
2022/05/04 08:05:23;;;;;;;;;;;;;;;17.08;62.02;100844.19;4412890;32;20313;-70
2022/05/04 08:07:48;;;;;;;;;;;;;;;17.03;61.33;100845.62;4411622;32;20147;-70
2022/05/04 08:10:14;;;;;;;;;;;;;;;16.80;62.07;100849.19;4413331;32;19997;-70
2022/05/04 08:12:40;;;;;;;;;;;;;;;17.18;60.82;100848.56;4412213;32;20013;-70
2022/05/04 08:15:06;;;;;;;;;;;;;;;16.76;62.50;100845.75;4396044;32;20021;-70
2022/05/04 08:17:32;;;;;;;;;;;;;;;16.79;62.63;100839.09;4411680;32;20021;-70
2022/05/04 08:19:59;;;;;;;;;;;;;;;16.95;62.25;100841.56;4412158;32;20221;-70
2022/05/04 08:22:25;;;;;;;;;;;;;;;17.17;62.01;100844.13;4411118;32;20057;-69
2022/05/04 08:24:51;;;;;;;;;;;;;;;17.19;62.13;100842.41;4398932;32;20000;-69
2022/05/04 08:27:17;;;;;;;;;;;;;;;17.47;60.81;100834.53;4410152;32;19981;-69
2022/05/04 08:29:44;;;;;;;;;;;;;;;17.36;60.61;100831.38;4412096;32;20050;-69
2022/05/04 08:32:10;;;;;;;;;;;;;;;17.49;60.44;100829.16;4411955;32;20089;-69
2022/05/04 08:34:36;;;;;;;;;;;;;;;17.14;61.41;100817.47;4414668;32;20575;-70
2022/05/04 08:37:03;;;;;;;;;;;;;;;17.34;61.38;100825.41;4411255;32;20024;-70
2022/05/04 08:39:29;;;;;;;;;;;;;;;17.83;59.88;100823.66;4411424;32;19997;-69
2022/05/04 08:41:54;;;;;;;;;;;;;;;18.19;58.27;100822.56;4411009;32;20393;-70
2022/05/04 08:44:20;;;;;;;;;;;;;;;17.94;57.87;100828.78;4411290;32;20223;-70
2022/05/04 08:46:49;;;;;;;;;;;;;;;18.02;57.73;100815.75;4411333;32;21267;-70
2022/05/04 08:49:19;;;;;;;;;;;;;;;18.02;58.71;100829.22;4412774;32;19964;-70
2022/05/04 08:51:45;;;;;;;;;;;;;;;18.13;57.54;100827.37;4412481;32;20637;-70
2022/05/04 08:54:10;;;;;;;;;;;;;;;18.27;58.15;100831.50;4412952;32;19993;-71
2022/05/04 08:56:37;;;;;;;;;;;;;;;18.25;57.41;100820.59;4406592;32;19984;-71
2022/05/04 08:59:03;;;;;;;;;;;;;;;18.44;56.75;100822.03;4397710;32;20294;-71
2022/05/04 09:01:30;;;;;;;;;;;;;;;18.25;56.27;100825.53;4408947;32;19989;-71
2022/05/04 09:03:57;;;;;;;;;;;;;;;18.39;56.92;100827.63;4407840;32;19997;-71
2022/05/04 09:06:25;;;;;;;;;;;;;;;18.15;56.97;100832.56;4398340;32;20999;-71
2022/05/04 09:08:52;;;;;;;;;;;;;;;18.59;56.72;100836.28;4412839;32;20001;-71
2022/05/04 09:11:20;;;;;;;;;;;;;;;18.86;56.08;100844.50;4410468;32;19984;-71
2022/05/04 09:13:46;;;;;;;;;;;;;;;19.25;53.81;100834.53;4412239;32;20014;-71
2022/05/04 09:16:23;;;;;;;;;;;;;;;19.57;54.12;100839.16;4412069;32;19997;-71
2022/05/04 09:18:49;;;;;;;;;;;;;;;19.96;53.58;100837.59;4415051;32;19996;-72
2022/05/04 09:21:21;;;;;;;;;;;;;;;20.29;52.14;100837.22;4416396;32;20437;-72
2022/05/04 09:23:49;;;;;;;;;;;;;;;20.23;51.48;100837.16;4416423;32;20421;-71
2022/05/04 09:26:15;;;;;;;;;;;;;;;20.68;49.66;100853.47;4414861;32;19988;-72
2022/05/04 09:28:41;;;;;;;;;;;;;;;20.57;50.20;100849.72;4416254;32;19996;-72
2022/05/04 09:31:07;;;;;;;;;;;;;;;20.56;50.17;100839.59;4412702;32;20381;-72
2022/05/04 09:33:35;;;;;;;;;;;;;;;20.47;50.92;100842.62;4412011;32;19984;-71
2022/05/04 09:36:03;;;;;;;;;;;;;;;20.58;49.80;100842.72;4414216;32;19993;-72
2022/05/04 09:46:48;;;;;;;;;;;;;;;21.22;48.65;100846.69;4414228;32;20739;-71
2022/05/04 09:51:50;;;;;;;;;;;;;;;21.23;49.12;100844.63;3941096;32;15749446;-71
2022/05/04 09:54:17;;;;;;;;;;;;;;;21.23;49.12;100844.63;4417307;32;20040;-71
2022/05/04 09:56:45;;;;;;;;;;;;;;;20.71;49.00;100843.13;4415394;32;20880;-72
2022/05/04 09:59:13;;;;;;;;;;;;;;;20.71;49.81;100843.13;4416063;32;21038;-71
2022/05/04 10:01:39;;;;;;;;;;;;;;;20.86;49.19;100840.91;4407742;32;19985;-72
2022/05/04 10:04:05;;;;;;;;;;;;;;;21.45;47.44;100851.25;4416481;32;20013;-72
2022/05/04 10:06:31;;;;;;;;;;;;;;;21.41;47.39;100847.84;4414743;32;19953;-72
2022/05/04 10:08:57;;;;;;;;;;;;;;;21.37;47.95;100852.25;4416038;32;20012;-71
2022/05/04 10:11:23;;;;;;;;;;;;;;;21.78;46.55;100852.78;4416361;32;20076;-71
2022/05/04 10:13:53;;;;;;;;;;;;;;;21.98;45.82;100849.72;4413323;32;20639;-71
2022/05/04 10:16:21;;;;;;;;;;;;;;;22.66;44.02;100859.59;4416586;32;20413;-70
2022/05/04 10:18:48;;;;;;;;;;;;;;;23.19;43.86;100842.12;4419189;32;19977;-70
2022/05/04 10:21:15;;;;;;;;;;;;;;;23.72;40.75;100835.25;4416034;32;20354;-71
2022/05/04 10:23:42;;;;;;;;;;;;;;;23.50;41.60;100852.53;4417958;32;19987;-70
2022/05/04 10:26:10;;;;;;;;;;;;;;;23.08;42.78;100849.97;4417789;32;19990;-71
2022/05/04 10:28:36;;;;;;;;;;;;;;;23.11;43.13;100843.94;4419302;32;20060;-71
2022/05/04 10:31:07;;;;;;;;;;;;;;;23.04;42.88;100840.84;4417639;32;20008;-71
2022/05/04 10:33:33;;;;;;;;;;;;;;;23.64;42.64;100850.69;4418735;32;20672;-71
2022/05/04 10:36:16;;;;;;;;;;;;;;;23.45;43.27;100844.72;4419801;32;20424;-72
2022/05/04 10:38:43;;;;;;;;;;;;;;;23.35;43.11;100844.22;4403867;32;20177;-71
2022/05/04 10:41:09;;;;;;;;;;;;;;;23.22;43.16;100843.16;4412961;32;19987;-72
2022/05/04 10:46:10;;;;;;;;;;;;;;;23.89;41.61;100838.84;3935729;32;15921333;-72
2022/05/04 10:48:42;;;;;;;;;;;;;;;23.89;41.61;100838.84;4418827;32;20534;-72
2022/05/04 10:51:12;;;;;;;;;;;;;;;23.72;42.34;100843.87;4421588;32;20000;-72
2022/05/04 10:53:40;;;;;;;;;;;;;;;23.40;42.54;100834.03;4420069;32;21166;-71
2022/05/04 11:04:04;;;;;;;;;;;;;;;21.93;46.17;100848.41;3946181;32;15725952;-70
2022/05/04 11:09:09;;;;;;;;;;;;;;;21.02;49.12;100835.34;3941077;32;15724038;-70
2022/05/04 11:11:36;;;;;;;;;;;;;;;20.28;51.92;100832.81;4412665;32;19966;-70
2022/05/04 11:14:02;;;;;;;;;;;;;;;19.81;53.10;100845.44;4412932;32;20009;-71
2022/05/04 11:16:28;;;;;;;;;;;;;;;19.55;54.01;100824.63;4416449;32;20013;-71
2022/05/04 11:18:54;;;;;;;;;;;;;;;19.88;53.67;100833.59;4416668;32;20031;-72
2022/05/04 11:21:20;;;;;;;;;;;;;;;20.16;52.46;100839.69;4401969;32;19973;-72
2022/05/04 11:23:47;;;;;;;;;;;;;;;20.30;50.64;100825.28;4416256;32;20001;-72
2022/05/04 11:26:17;;;;;;;;;;;;;;;20.36;51.02;100826.13;4417712;32;20007;-72
2022/05/04 11:28:43;;;;;;;;;;;;;;;19.87;50.45;100829.16;4416796;32;20005;-72
2022/05/04 11:31:09;;;;;;;;;;;;;;;20.05;50.49;100823.16;4417564;32;20033;-72
2022/05/04 11:33:35;;;;;;;;;;;;;;;20.09;50.85;100837.25;4413968;32;20574;-72
2022/05/04 11:36:01;;;;;;;;;;;;;;;19.85;51.44;100823.16;4416547;32;19989;-71
2022/05/04 11:38:26;;;;;;;;;;;;;;;19.57;52.30;100824.88;4418495;32;20403;-72
2022/05/04 11:40:54;;;;;;;;;;;;;;;19.62;52.44;100824.19;4418866;32;20058;-72
2022/05/04 11:43:24;;;;;;;;;;;;;;;19.55;52.57;100830.31;4424880;32;20353;-72
2022/05/04 11:45:51;;;;;;;;;;;;;;;19.78;52.02;100832.97;4426989;32;20017;-72
2022/05/04 11:48:18;;;;;;;;;;;;;;;19.61;52.09;100817.69;4423787;32;19992;-72
2022/05/04 11:50:44;;;;;;;;;;;;;;;19.28;53.12;100820.09;4428013;32;19997;-72
2022/05/04 11:53:10;;;;;;;;;;;;;;;20.23;50.31;100819.22;4424412;32;20012;-72
2022/05/04 11:55:35;;;;;;;;;;;;;;;20.77;48.53;100821.06;4417202;32;20000;-72
2022/05/04 11:58:01;;;;;;;;;;;;;;;21.16;46.96;100828.69;4415317;32;20049;-72
2022/05/04 12:00:27;;;;;;;;;;;;;;;21.34;46.69;100836.09;4412921;32;20020;-72
2022/05/04 12:02:54;;;;;;;;;;;;;;;21.24;46.76;100824.06;4412951;32;19981;-72
2022/05/04 12:05:20;;;;;;;;;;;;;;;21.78;45.21;100824.13;4414968;32;20014;-72
2022/05/04 12:07:46;;;;;;;;;;;;;;;22.19;44.09;100828.19;4415732;32;19996;-72
2022/05/04 12:10:11;;;;;;;;;;;;;;;22.61;43.17;100828.03;4416633;32;20578;-72
2022/05/04 12:12:37;;;;;;;;;;;;;;;22.95;42.06;100821.78;4415620;32;20001;-72
2022/05/04 12:15:04;;;;;;;;;;;;;;;23.58;41.18;100835.53;4410824;32;19997;-72
2022/05/04 12:17:29;;;;;;;;;;;;;;;23.53;41.25;100822.75;4400245;32;20363;-72
2022/05/04 12:19:55;;;;;;;;;;;;;;;23.66;40.52;100820.13;4408091;32;20005;-72
2022/05/04 12:22:20;;;;;;;;;;;;;;;23.51;41.41;100819.66;4405355;32;20073;-72
2022/05/04 12:24:47;;;;;;;;;;;;;;;22.80;42.45;100823.37;4403151;32;20040;-71
2022/05/04 12:27:12;;;;;;;;;;;;;;;23.19;41.64;100821.22;4403468;32;20496;-71
2022/05/04 12:35:10;;;;;;;;;;;;;;;23.93;40.17;100832.81;4403215;32;20005;-72
2022/05/04 12:37:35;;;;;;;;;;;;;;;24.22;39.00;100807.09;4402806;32;20024;-71
2022/05/04 12:40:02;;;;;;;;;;;;;;;24.78;38.09;100816.94;4402508;32;20040;-71
2022/05/04 12:42:28;;;;;;;;;;;;;;;25.50;37.50;100812.59;4399801;32;20065;-72
2022/05/04 12:44:53;;;;;;;;;;;;;;;25.70;35.44;100821.53;4401386;32;20000;-70
2022/05/04 12:47:24;;;;;;;;;;;;;;;26.17;35.73;100814.13;4403654;32;21331;-72
2022/05/04 12:49:50;;;;;;;;;;;;;;;26.44;34.60;100824.50;4402209;32;20028;-70
2022/05/04 12:52:16;;;;;;;;;;;;;;;26.40;35.02;100821.16;4401665;32;20023;-72
2022/05/04 12:54:42;;;;;;;;;;;;;;;25.87;35.45;100835.75;4403201;32;20706;-71
2022/05/04 12:57:08;;;;;;;;;;;;;;;24.92;36.04;100821.53;4404331;32;20023;-71
2022/05/04 12:59:34;;;;;;;;;;;;;;;23.81;38.11;100820.59;4406125;32;20615;-71
2022/05/04 13:02:00;;;;;;;;;;;;;;;23.81;38.45;100816.94;4399618;32;20015;-71
2022/05/04 13:04:26;;;;;;;;;;;;;;;23.90;38.49;100819.50;4402090;32;20008;-71
2022/05/04 13:06:52;;;;;;;;;;;;;;;23.00;40.20;100814.47;4388654;32;21121;-71
2022/05/04 13:09:18;;;;;;;;;;;;;;;22.42;42.08;100819.09;4403053;32;20031;-71
2022/05/04 13:11:44;;;;;;;;;;;;;;;22.56;41.71;100823.06;4399616;32;20004;-72
2022/05/04 13:14:09;;;;;;;;;;;;;;;22.71;41.61;100812.94;4401747;32;20040;-71
2022/05/04 13:16:36;;;;;;;;;;;;;;;22.61;42.38;100817.34;4399394;32;20330;-70